sensor_id;sensor_type;location;lat;lon;timestamp;P1;durP1;ratioP1;P2;durP2;ratioP2
77099;SDS011;66602;48.922;2.414;2023-08-21T00:01:28;5.55;;;1.60;;
77099;SDS011;66602;48.922;2.414;2023-08-21T00:03:53;3.05;;;1.48;;
77099;SDS011;66602;48.922;2.414;2023-08-21T00:06:19;5.35;;;1.83;;
77099;SDS011;66602;48.922;2.414;2023-08-21T00:08:44;2.30;;;1.48;;
77099;SDS011;66602;48.922;2.414;2023-08-21T00:11:10;11.80;;;2.17;;
77099;SDS011;66602;48.922;2.414;2023-08-21T00:13:35;3.00;;;1.50;;
77099;SDS011;66602;48.922;2.414;2023-08-21T00:16:01;4.50;;;1.40;;
77099;SDS011;66602;48.922;2.414;2023-08-21T00:18:26;5.05;;;1.55;;
77099;SDS011;66602;48.922;2.414;2023-08-21T00:20:52;3.40;;;1.45;;
77099;SDS011;66602;48.922;2.414;2023-08-21T00:23:17;3.03;;;1.55;;
77099;SDS011;66602;48.922;2.414;2023-08-21T00:25:45;6.45;;;1.83;;
77099;SDS011;66602;48.922;2.414;2023-08-21T00:28:11;3.10;;;1.60;;
77099;SDS011;66602;48.922;2.414;2023-08-21T00:30:37;3.08;;;1.58;;
77099;SDS011;66602;48.922;2.414;2023-08-21T00:33:03;4.03;;;1.50;;
77099;SDS011;66602;48.922;2.414;2023-08-21T00:35:28;8.32;;;1.90;;
77099;SDS011;66602;48.922;2.414;2023-08-21T00:37:54;6.78;;;1.42;;
77099;SDS011;66602;48.922;2.414;2023-08-21T00:40:19;3.33;;;1.67;;
77099;SDS011;66602;48.922;2.414;2023-08-21T00:42:44;5.35;;;1.35;;
77099;SDS011;66602;48.922;2.414;2023-08-21T00:45:10;6.88;;;1.40;;
77099;SDS011;66602;48.922;2.414;2023-08-21T00:47:36;7.53;;;1.58;;
77099;SDS011;66602;48.922;2.414;2023-08-21T00:50:02;5.30;;;1.70;;
77099;SDS011;66602;48.922;2.414;2023-08-21T00:52:31;9.10;;;2.30;;
77099;SDS011;66602;48.922;2.414;2023-08-21T00:54:57;4.32;;;1.70;;
77099;SDS011;66602;48.922;2.414;2023-08-21T00:57:23;6.65;;;1.95;;
77099;SDS011;66602;48.922;2.414;2023-08-21T00:59:48;3.60;;;1.77;;
77099;SDS011;66602;48.922;2.414;2023-08-21T01:02:14;7.20;;;1.83;;
77099;SDS011;66602;48.922;2.414;2023-08-21T01:04:40;2.90;;;1.50;;
77099;SDS011;66602;48.922;2.414;2023-08-21T01:07:05;12.32;;;2.28;;
77099;SDS011;66602;48.922;2.414;2023-08-21T01:09:58;4.38;;;1.58;;
77099;SDS011;66602;48.922;2.414;2023-08-21T01:15:03;4.35;;;1.55;;
77099;SDS011;66602;48.922;2.414;2023-08-21T01:17:41;3.38;;;1.42;;
77099;SDS011;66602;48.922;2.414;2023-08-21T01:20:08;7.32;;;1.60;;
77099;SDS011;66602;48.922;2.414;2023-08-21T01:22:39;5.57;;;1.90;;
77099;SDS011;66602;48.922;2.414;2023-08-21T01:25:06;3.67;;;1.60;;
77099;SDS011;66602;48.922;2.414;2023-08-21T01:27:33;4.53;;;1.50;;
77099;SDS011;66602;48.922;2.414;2023-08-21T01:30:00;2.33;;;1.20;;
77099;SDS011;66602;48.922;2.414;2023-08-21T01:32:40;9.52;;;2.40;;
77099;SDS011;66602;48.922;2.414;2023-08-21T01:35:15;5.28;;;1.45;;
77099;SDS011;66602;48.922;2.414;2023-08-21T01:37:41;7.22;;;1.65;;
77099;SDS011;66602;48.922;2.414;2023-08-21T01:40:07;4.78;;;1.88;;
77099;SDS011;66602;48.922;2.414;2023-08-21T01:42:33;4.68;;;1.40;;
77099;SDS011;66602;48.922;2.414;2023-08-21T01:44:59;2.92;;;1.30;;
77099;SDS011;66602;48.922;2.414;2023-08-21T01:47:24;4.22;;;2.13;;
77099;SDS011;66602;48.922;2.414;2023-08-21T01:49:50;7.95;;;1.92;;
77099;SDS011;66602;48.922;2.414;2023-08-21T01:52:17;5.13;;;1.48;;
77099;SDS011;66602;48.922;2.414;2023-08-21T01:54:45;5.53;;;1.80;;
77099;SDS011;66602;48.922;2.414;2023-08-21T01:57:13;6.13;;;2.22;;
77099;SDS011;66602;48.922;2.414;2023-08-21T01:59:38;3.17;;;1.50;;
77099;SDS011;66602;48.922;2.414;2023-08-21T02:02:04;5.70;;;1.88;;
77099;SDS011;66602;48.922;2.414;2023-08-21T02:04:29;3.58;;;1.55;;
77099;SDS011;66602;48.922;2.414;2023-08-21T02:06:55;3.17;;;1.50;;
77099;SDS011;66602;48.922;2.414;2023-08-21T02:09:20;3.78;;;1.52;;
77099;SDS011;66602;48.922;2.414;2023-08-21T02:11:46;6.05;;;1.42;;
77099;SDS011;66602;48.922;2.414;2023-08-21T02:14:13;3.17;;;1.67;;
77099;SDS011;66602;48.922;2.414;2023-08-21T02:16:38;6.88;;;1.63;;
77099;SDS011;66602;48.922;2.414;2023-08-21T02:19:03;4.03;;;1.30;;
77099;SDS011;66602;48.922;2.414;2023-08-21T02:21:29;4.38;;;1.38;;
77099;SDS011;66602;48.922;2.414;2023-08-21T02:23:54;5.82;;;1.27;;
77099;SDS011;66602;48.922;2.414;2023-08-21T02:26:20;9.63;;;1.60;;
77099;SDS011;66602;48.922;2.414;2023-08-21T02:28:45;7.07;;;1.63;;
77099;SDS011;66602;48.922;2.414;2023-08-21T02:31:11;5.20;;;1.45;;
77099;SDS011;66602;48.922;2.414;2023-08-21T02:33:37;6.47;;;1.80;;
77099;SDS011;66602;48.922;2.414;2023-08-21T02:36:03;2.42;;;1.60;;
77099;SDS011;66602;48.922;2.414;2023-08-21T02:38:29;3.85;;;1.42;;
77099;SDS011;66602;48.922;2.414;2023-08-21T02:40:54;7.15;;;2.20;;
77099;SDS011;66602;48.922;2.414;2023-08-21T02:43:21;4.68;;;1.73;;
77099;SDS011;66602;48.922;2.414;2023-08-21T02:45:46;5.25;;;2.42;;
77099;SDS011;66602;48.922;2.414;2023-08-21T02:48:12;4.60;;;2.50;;
77099;SDS011;66602;48.922;2.414;2023-08-21T02:50:37;2.90;;;2.00;;
77099;SDS011;66602;48.922;2.414;2023-08-21T02:53:03;7.65;;;2.80;;
77099;SDS011;66602;48.922;2.414;2023-08-21T02:55:29;7.32;;;3.03;;
77099;SDS011;66602;48.922;2.414;2023-08-21T02:57:54;5.05;;;3.28;;
77099;SDS011;66602;48.922;2.414;2023-08-21T03:00:20;5.70;;;2.78;;
77099;SDS011;66602;48.922;2.414;2023-08-21T03:02:45;3.75;;;3.08;;
77099;SDS011;66602;48.922;2.414;2023-08-21T03:05:11;6.05;;;2.80;;
77099;SDS011;66602;48.922;2.414;2023-08-21T03:07:37;7.03;;;3.38;;
77099;SDS011;66602;48.922;2.414;2023-08-21T03:10:03;4.57;;;3.22;;
77099;SDS011;66602;48.922;2.414;2023-08-21T03:12:28;11.45;;;4.18;;
77099;SDS011;66602;48.922;2.414;2023-08-21T03:14:54;9.45;;;4.10;;
77099;SDS011;66602;48.922;2.414;2023-08-21T03:17:19;7.25;;;4.05;;
77099;SDS011;66602;48.922;2.414;2023-08-21T03:19:45;7.22;;;4.35;;
77099;SDS011;66602;48.922;2.414;2023-08-21T03:22:10;8.48;;;3.90;;
77099;SDS011;66602;48.922;2.414;2023-08-21T03:24:36;8.73;;;4.20;;
77099;SDS011;66602;48.922;2.414;2023-08-21T03:27:02;8.25;;;4.20;;
77099;SDS011;66602;48.922;2.414;2023-08-21T03:29:28;13.95;;;4.75;;
77099;SDS011;66602;48.922;2.414;2023-08-21T03:31:53;5.15;;;4.65;;
77099;SDS011;66602;48.922;2.414;2023-08-21T03:34:22;9.60;;;5.13;;
77099;SDS011;66602;48.922;2.414;2023-08-21T03:36:47;12.43;;;5.03;;
77099;SDS011;66602;48.922;2.414;2023-08-21T03:39:13;9.13;;;4.80;;
77099;SDS011;66602;48.922;2.414;2023-08-21T03:41:38;4.22;;;3.78;;
77099;SDS011;66602;48.922;2.414;2023-08-21T03:44:04;12.27;;;3.97;;
77099;SDS011;66602;48.922;2.414;2023-08-21T03:46:30;5.32;;;3.03;;
77099;SDS011;66602;48.922;2.414;2023-08-21T03:48:55;6.68;;;3.30;;
77099;SDS011;66602;48.922;2.414;2023-08-21T03:51:21;4.60;;;2.88;;
77099;SDS011;66602;48.922;2.414;2023-08-21T03:53:47;6.82;;;2.60;;
77099;SDS011;66602;48.922;2.414;2023-08-21T03:56:12;7.88;;;2.80;;
77099;SDS011;66602;48.922;2.414;2023-08-21T03:58:38;5.78;;;2.30;;
77099;SDS011;66602;48.922;2.414;2023-08-21T04:01:03;6.63;;;2.33;;
77099;SDS011;66602;48.922;2.414;2023-08-21T04:03:29;8.90;;;3.70;;
77099;SDS011;66602;48.922;2.414;2023-08-21T04:05:55;8.60;;;2.30;;
77099;SDS011;66602;48.922;2.414;2023-08-21T04:08:21;6.68;;;2.30;;
77099;SDS011;66602;48.922;2.414;2023-08-21T04:10:47;3.03;;;1.90;;
77099;SDS011;66602;48.922;2.414;2023-08-21T04:13:13;3.28;;;2.10;;
77099;SDS011;66602;48.922;2.414;2023-08-21T04:15:38;4.95;;;1.73;;
77099;SDS011;66602;48.922;2.414;2023-08-21T04:18:04;8.00;;;1.70;;
77099;SDS011;66602;48.922;2.414;2023-08-21T04:20:30;5.47;;;2.20;;
77099;SDS011;66602;48.922;2.414;2023-08-21T04:22:56;7.95;;;2.75;;
77099;SDS011;66602;48.922;2.414;2023-08-21T04:25:21;3.63;;;2.08;;
77099;SDS011;66602;48.922;2.414;2023-08-21T04:27:47;2.45;;;2.05;;
77099;SDS011;66602;48.922;2.414;2023-08-21T04:30:13;3.28;;;1.65;;
77099;SDS011;66602;48.922;2.414;2023-08-21T04:32:38;3.22;;;1.65;;
77099;SDS011;66602;48.922;2.414;2023-08-21T04:35:04;5.15;;;1.80;;
77099;SDS011;66602;48.922;2.414;2023-08-21T04:37:30;4.78;;;1.67;;
77099;SDS011;66602;48.922;2.414;2023-08-21T04:39:56;4.30;;;1.40;;
77099;SDS011;66602;48.922;2.414;2023-08-21T04:42:21;5.85;;;1.98;;
77099;SDS011;66602;48.922;2.414;2023-08-21T04:44:47;7.13;;;1.90;;
77099;SDS011;66602;48.922;2.414;2023-08-21T04:47:23;4.85;;;2.03;;
77099;SDS011;66602;48.922;2.414;2023-08-21T04:49:51;4.20;;;1.70;;
77099;SDS011;66602;48.922;2.414;2023-08-21T04:52:17;5.28;;;1.80;;
77099;SDS011;66602;48.922;2.414;2023-08-21T04:54:42;2.72;;;1.70;;
77099;SDS011;66602;48.922;2.414;2023-08-21T04:57:08;4.97;;;1.20;;
77099;SDS011;66602;48.922;2.414;2023-08-21T04:59:34;4.88;;;1.48;;
77099;SDS011;66602;48.922;2.414;2023-08-21T05:02:01;7.40;;;1.40;;
77099;SDS011;66602;48.922;2.414;2023-08-21T05:04:26;8.82;;;2.53;;
77099;SDS011;66602;48.922;2.414;2023-08-21T05:06:52;7.82;;;1.83;;
77099;SDS011;66602;48.922;2.414;2023-08-21T05:09:17;2.53;;;1.55;;
77099;SDS011;66602;48.922;2.414;2023-08-21T05:11:43;5.95;;;1.80;;
77099;SDS011;66602;48.922;2.414;2023-08-21T05:14:08;2.40;;;1.35;;
77099;SDS011;66602;48.922;2.414;2023-08-21T05:16:34;6.30;;;2.35;;
77099;SDS011;66602;48.922;2.414;2023-08-21T05:19:00;2.95;;;1.52;;
77099;SDS011;66602;48.922;2.414;2023-08-21T05:21:25;6.68;;;2.00;;
77099;SDS011;66602;48.922;2.414;2023-08-21T05:23:51;3.83;;;1.70;;
77099;SDS011;66602;48.922;2.414;2023-08-21T05:26:16;7.03;;;1.80;;
77099;SDS011;66602;48.922;2.414;2023-08-21T05:28:42;2.53;;;1.58;;
77099;SDS011;66602;48.922;2.414;2023-08-21T05:31:07;5.75;;;1.60;;
77099;SDS011;66602;48.922;2.414;2023-08-21T05:33:32;3.78;;;1.48;;
77099;SDS011;66602;48.922;2.414;2023-08-21T05:35:58;7.45;;;1.80;;
77099;SDS011;66602;48.922;2.414;2023-08-21T05:38:24;3.80;;;1.35;;
77099;SDS011;66602;48.922;2.414;2023-08-21T05:40:49;3.45;;;1.70;;
77099;SDS011;66602;48.922;2.414;2023-08-21T05:43:16;8.98;;;2.10;;
77099;SDS011;66602;48.922;2.414;2023-08-21T05:45:42;10.55;;;2.50;;
77099;SDS011;66602;48.922;2.414;2023-08-21T05:48:07;5.35;;;1.73;;
77099;SDS011;66602;48.922;2.414;2023-08-21T05:50:33;4.78;;;1.67;;
77099;SDS011;66602;48.922;2.414;2023-08-21T05:52:58;5.13;;;1.98;;
77099;SDS011;66602;48.922;2.414;2023-08-21T05:55:26;5.60;;;1.98;;
77099;SDS011;66602;48.922;2.414;2023-08-21T05:57:52;5.15;;;2.25;;
77099;SDS011;66602;48.922;2.414;2023-08-21T06:00:17;6.22;;;2.55;;
77099;SDS011;66602;48.922;2.414;2023-08-21T06:02:43;7.82;;;2.40;;
77099;SDS011;66602;48.922;2.414;2023-08-21T06:05:08;12.93;;;2.40;;
77099;SDS011;66602;48.922;2.414;2023-08-21T06:07:34;5.45;;;1.60;;
77099;SDS011;66602;48.922;2.414;2023-08-21T06:09:59;3.80;;;1.55;;
77099;SDS011;66602;48.922;2.414;2023-08-21T06:12:25;7.93;;;2.00;;
77099;SDS011;66602;48.922;2.414;2023-08-21T06:14:51;1.25;;;1.10;;
77099;SDS011;66602;48.922;2.414;2023-08-21T06:17:16;12.90;;;1.58;;
77099;SDS011;66602;48.922;2.414;2023-08-21T06:19:42;2.33;;;1.10;;
77099;SDS011;66602;48.922;2.414;2023-08-21T06:22:07;3.47;;;1.60;;
77099;SDS011;66602;48.922;2.414;2023-08-21T06:24:33;2.97;;;1.30;;
77099;SDS011;66602;48.922;2.414;2023-08-21T06:26:58;6.07;;;1.88;;
77099;SDS011;66602;48.922;2.414;2023-08-21T06:29:24;3.65;;;1.40;;
77099;SDS011;66602;48.922;2.414;2023-08-21T06:31:50;2.75;;;1.73;;
77099;SDS011;66602;48.922;2.414;2023-08-21T06:34:15;11.25;;;2.78;;
77099;SDS011;66602;48.922;2.414;2023-08-21T06:36:40;6.15;;;1.65;;
77099;SDS011;66602;48.922;2.414;2023-08-21T06:39:06;15.77;;;2.60;;
77099;SDS011;66602;48.922;2.414;2023-08-21T06:41:31;7.57;;;2.05;;
77099;SDS011;66602;48.922;2.414;2023-08-21T06:43:57;4.40;;;1.90;;
77099;SDS011;66602;48.922;2.414;2023-08-21T06:46:23;4.40;;;1.92;;
77099;SDS011;66602;48.922;2.414;2023-08-21T06:48:49;4.13;;;1.40;;
77099;SDS011;66602;48.922;2.414;2023-08-21T06:51:15;3.33;;;2.20;;
77099;SDS011;66602;48.922;2.414;2023-08-21T06:53:41;12.15;;;2.15;;
77099;SDS011;66602;48.922;2.414;2023-08-21T06:56:07;5.97;;;2.42;;
77099;SDS011;66602;48.922;2.414;2023-08-21T06:58:32;5.13;;;1.90;;
77099;SDS011;66602;48.922;2.414;2023-08-21T07:00:59;4.63;;;2.55;;
77099;SDS011;66602;48.922;2.414;2023-08-21T07:03:25;6.40;;;2.00;;
77099;SDS011;66602;48.922;2.414;2023-08-21T07:05:57;9.35;;;7.90;;
77099;SDS011;66602;48.922;2.414;2023-08-21T07:08:24;6.68;;;5.20;;
77099;SDS011;66602;48.922;2.414;2023-08-21T07:10:50;9.02;;;3.17;;
77099;SDS011;66602;48.922;2.414;2023-08-21T07:13:16;3.40;;;2.35;;
77099;SDS011;66602;48.922;2.414;2023-08-21T07:15:41;3.88;;;2.38;;
77099;SDS011;66602;48.922;2.414;2023-08-21T07:18:07;11.48;;;4.30;;
77099;SDS011;66602;48.922;2.414;2023-08-21T07:20:33;3.63;;;1.45;;
77099;SDS011;66602;48.922;2.414;2023-08-21T07:22:58;5.25;;;1.85;;
77099;SDS011;66602;48.922;2.414;2023-08-21T07:25:24;3.03;;;1.50;;
77099;SDS011;66602;48.922;2.414;2023-08-21T07:27:51;8.90;;;3.00;;
77099;SDS011;66602;48.922;2.414;2023-08-21T07:30:18;19.17;;;3.05;;
77099;SDS011;66602;48.922;2.414;2023-08-21T07:32:45;5.00;;;2.42;;
77099;SDS011;66602;48.922;2.414;2023-08-21T07:35:11;6.47;;;1.55;;
77099;SDS011;66602;48.922;2.414;2023-08-21T07:37:37;5.75;;;2.00;;
77099;SDS011;66602;48.922;2.414;2023-08-21T07:40:02;5.63;;;1.50;;
77099;SDS011;66602;48.922;2.414;2023-08-21T07:42:30;3.33;;;1.60;;
77099;SDS011;66602;48.922;2.414;2023-08-21T07:44:55;7.80;;;1.80;;
77099;SDS011;66602;48.922;2.414;2023-08-21T07:47:21;5.35;;;2.22;;
77099;SDS011;66602;48.922;2.414;2023-08-21T07:49:46;5.43;;;2.20;;
77099;SDS011;66602;48.922;2.414;2023-08-21T07:52:12;17.38;;;2.95;;
77099;SDS011;66602;48.922;2.414;2023-08-21T07:54:37;7.43;;;2.75;;
77099;SDS011;66602;48.922;2.414;2023-08-21T07:57:03;2.13;;;1.60;;
77099;SDS011;66602;48.922;2.414;2023-08-21T07:59:29;4.18;;;1.80;;
77099;SDS011;66602;48.922;2.414;2023-08-21T08:01:54;4.63;;;1.50;;
77099;SDS011;66602;48.922;2.414;2023-08-21T08:04:20;2.42;;;1.55;;
77099;SDS011;66602;48.922;2.414;2023-08-21T08:06:46;3.17;;;1.60;;
77099;SDS011;66602;48.922;2.414;2023-08-21T08:09:12;8.98;;;1.83;;
77099;SDS011;66602;48.922;2.414;2023-08-21T08:11:37;9.07;;;1.45;;
77099;SDS011;66602;48.922;2.414;2023-08-21T08:14:03;5.82;;;1.30;;
77099;SDS011;66602;48.922;2.414;2023-08-21T08:16:28;3.33;;;1.35;;
77099;SDS011;66602;48.922;2.414;2023-08-21T08:18:54;2.42;;;1.25;;
77099;SDS011;66602;48.922;2.414;2023-08-21T08:21:19;2.30;;;1.48;;
77099;SDS011;66602;48.922;2.414;2023-08-21T08:23:45;3.35;;;1.17;;
77099;SDS011;66602;48.922;2.414;2023-08-21T08:26:10;4.28;;;1.50;;
77099;SDS011;66602;48.922;2.414;2023-08-21T08:28:36;7.50;;;1.40;;
77099;SDS011;66602;48.922;2.414;2023-08-21T08:31:01;1.55;;;1.20;;
77099;SDS011;66602;48.922;2.414;2023-08-21T08:33:36;3.83;;;1.42;;
77099;SDS011;66602;48.922;2.414;2023-08-21T08:36:02;2.83;;;1.33;;
77099;SDS011;66602;48.922;2.414;2023-08-21T08:38:27;3.60;;;1.40;;
77099;SDS011;66602;48.922;2.414;2023-08-21T08:40:53;4.78;;;1.50;;
77099;SDS011;66602;48.922;2.414;2023-08-21T08:43:20;2.50;;;1.15;;
77099;SDS011;66602;48.922;2.414;2023-08-21T08:45:47;8.93;;;1.52;;
77099;SDS011;66602;48.922;2.414;2023-08-21T08:48:15;8.38;;;1.60;;
77099;SDS011;66602;48.922;2.414;2023-08-21T08:50:41;3.92;;;1.20;;
77099;SDS011;66602;48.922;2.414;2023-08-21T08:53:07;2.53;;;1.10;;
77099;SDS011;66602;48.922;2.414;2023-08-21T08:55:34;6.63;;;1.60;;
77099;SDS011;66602;48.922;2.414;2023-08-21T08:57:59;5.15;;;1.60;;
77099;SDS011;66602;48.922;2.414;2023-08-21T09:00:25;6.20;;;1.90;;
77099;SDS011;66602;48.922;2.414;2023-08-21T09:02:51;2.33;;;1.52;;
77099;SDS011;66602;48.922;2.414;2023-08-21T09:05:17;2.65;;;1.75;;
77099;SDS011;66602;48.922;2.414;2023-08-21T09:07:42;3.78;;;1.80;;
77099;SDS011;66602;48.922;2.414;2023-08-21T09:10:14;4.13;;;1.60;;
77099;SDS011;66602;48.922;2.414;2023-08-21T09:12:44;2.47;;;1.58;;
77099;SDS011;66602;48.922;2.414;2023-08-21T09:15:10;4.63;;;1.60;;
77099;SDS011;66602;48.922;2.414;2023-08-21T09:17:36;3.53;;;1.80;;
77099;SDS011;66602;48.922;2.414;2023-08-21T09:20:05;4.70;;;1.55;;
77099;SDS011;66602;48.922;2.414;2023-08-21T09:22:32;2.47;;;1.35;;
77099;SDS011;66602;48.922;2.414;2023-08-21T09:25:02;3.00;;;1.55;;
77099;SDS011;66602;48.922;2.414;2023-08-21T09:27:36;2.53;;;1.60;;
77099;SDS011;66602;48.922;2.414;2023-08-21T09:30:09;4.15;;;1.48;;
77099;SDS011;66602;48.922;2.414;2023-08-21T09:32:53;8.18;;;1.48;;
77099;SDS011;66602;48.922;2.414;2023-08-21T09:35:24;4.35;;;1.33;;
77099;SDS011;66602;48.922;2.414;2023-08-21T09:37:51;2.30;;;1.45;;
77099;SDS011;66602;48.922;2.414;2023-08-21T09:40:20;6.63;;;1.80;;
77099;SDS011;66602;48.922;2.414;2023-08-21T09:42:51;3.42;;;1.58;;
77099;SDS011;66602;48.922;2.414;2023-08-21T09:45:24;5.03;;;1.70;;
77099;SDS011;66602;48.922;2.414;2023-08-21T09:47:53;4.45;;;1.55;;
77099;SDS011;66602;48.922;2.414;2023-08-21T09:50:19;10.73;;;1.92;;
77099;SDS011;66602;48.922;2.414;2023-08-21T09:52:45;6.07;;;1.60;;
77099;SDS011;66602;48.922;2.414;2023-08-21T09:55:12;6.03;;;1.55;;
77099;SDS011;66602;48.922;2.414;2023-08-21T09:57:39;2.47;;;1.42;;
77099;SDS011;66602;48.922;2.414;2023-08-21T10:00:06;3.45;;;1.60;;
77099;SDS011;66602;48.922;2.414;2023-08-21T10:02:51;2.55;;;1.10;;
77099;SDS011;66602;48.922;2.414;2023-08-21T10:05:19;3.55;;;1.52;;
77099;SDS011;66602;48.922;2.414;2023-08-21T10:07:48;1.83;;;1.40;;
77099;SDS011;66602;48.922;2.414;2023-08-21T10:10:15;1.92;;;1.00;;
77099;SDS011;66602;48.922;2.414;2023-08-21T10:12:41;2.15;;;1.58;;
77099;SDS011;66602;48.922;2.414;2023-08-21T10:15:07;2.45;;;1.60;;
77099;SDS011;66602;48.922;2.414;2023-08-21T10:17:36;11.10;;;1.85;;
77099;SDS011;66602;48.922;2.414;2023-08-21T10:20:03;3.58;;;1.58;;
77099;SDS011;66602;48.922;2.414;2023-08-21T10:22:43;2.08;;;1.40;;
77099;SDS011;66602;48.922;2.414;2023-08-21T10:25:15;2.67;;;1.40;;
77099;SDS011;66602;48.922;2.414;2023-08-21T10:27:51;5.75;;;1.52;;
77099;SDS011;66602;48.922;2.414;2023-08-21T10:30:22;5.28;;;1.75;;
77099;SDS011;66602;48.922;2.414;2023-08-21T10:32:53;2.50;;;1.50;;
77099;SDS011;66602;48.922;2.414;2023-08-21T10:35:23;2.85;;;1.83;;
77099;SDS011;66602;48.922;2.414;2023-08-21T10:40:36;5.60;;;1.65;;
77099;SDS011;66602;48.922;2.414;2023-08-21T10:43:02;3.15;;;1.75;;
77099;SDS011;66602;48.922;2.414;2023-08-21T10:45:28;1.85;;;1.25;;
77099;SDS011;66602;48.922;2.414;2023-08-21T10:47:58;5.53;;;1.60;;
77099;SDS011;66602;48.922;2.414;2023-08-21T10:50:24;2.58;;;1.10;;
77099;SDS011;66602;48.922;2.414;2023-08-21T10:52:51;1.33;;;1.23;;
77099;SDS011;66602;48.922;2.414;2023-08-21T10:55:18;3.13;;;1.30;;
77099;SDS011;66602;48.922;2.414;2023-08-21T10:57:45;5.35;;;1.30;;
77099;SDS011;66602;48.922;2.414;2023-08-21T11:00:16;4.95;;;1.67;;
77099;SDS011;66602;48.922;2.414;2023-08-21T11:02:43;2.30;;;1.40;;
77099;SDS011;66602;48.922;2.414;2023-08-21T11:05:11;1.40;;;1.30;;
77099;SDS011;66602;48.922;2.414;2023-08-21T11:07:39;2.42;;;1.40;;
77099;SDS011;66602;48.922;2.414;2023-08-21T11:10:14;1.75;;;1.52;;
77099;SDS011;66602;48.922;2.414;2023-08-21T11:12:53;3.08;;;1.30;;
77099;SDS011;66602;48.922;2.414;2023-08-21T11:15:24;1.73;;;1.38;;
77099;SDS011;66602;48.922;2.414;2023-08-21T11:20:19;2.47;;;1.80;;
77099;SDS011;66602;48.922;2.414;2023-08-21T11:22:44;8.48;;;1.45;;
77099;SDS011;66602;48.922;2.414;2023-08-21T11:25:10;2.10;;;1.45;;
77099;SDS011;66602;48.922;2.414;2023-08-21T11:27:35;1.15;;;1.10;;
77099;SDS011;66602;48.922;2.414;2023-08-21T11:30:01;5.07;;;1.50;;
77099;SDS011;66602;48.922;2.414;2023-08-21T11:32:27;2.35;;;1.58;;
77099;SDS011;66602;48.922;2.414;2023-08-21T11:34:53;3.72;;;1.58;;
77099;SDS011;66602;48.922;2.414;2023-08-21T11:37:20;8.05;;;1.80;;
77099;SDS011;66602;48.922;2.414;2023-08-21T11:39:48;3.90;;;1.52;;
77099;SDS011;66602;48.922;2.414;2023-08-21T11:42:15;2.97;;;1.67;;
77099;SDS011;66602;48.922;2.414;2023-08-21T11:47:13;5.78;;;1.77;;
77099;SDS011;66602;48.922;2.414;2023-08-21T11:49:40;2.65;;;1.48;;
77099;SDS011;66602;48.922;2.414;2023-08-21T11:52:07;2.88;;;1.45;;
77099;SDS011;66602;48.922;2.414;2023-08-21T11:54:34;2.35;;;1.60;;
77099;SDS011;66602;48.922;2.414;2023-08-21T11:57:03;2.58;;;1.73;;
77099;SDS011;66602;48.922;2.414;2023-08-21T11:59:32;1.98;;;1.60;;
77099;SDS011;66602;48.922;2.414;2023-08-21T12:01:58;9.40;;;1.85;;
77099;SDS011;66602;48.922;2.414;2023-08-21T12:04:24;1.50;;;1.40;;
77099;SDS011;66602;48.922;2.414;2023-08-21T12:06:49;2.20;;;1.30;;
77099;SDS011;66602;48.922;2.414;2023-08-21T12:09:15;2.92;;;1.15;;
77099;SDS011;66602;48.922;2.414;2023-08-21T12:11:40;2.83;;;1.25;;
77099;SDS011;66602;48.922;2.414;2023-08-21T12:14:06;7.03;;;1.42;;
77099;SDS011;66602;48.922;2.414;2023-08-21T12:16:32;1.92;;;1.10;;
77099;SDS011;66602;48.922;2.414;2023-08-21T12:18:57;2.60;;;1.15;;
77099;SDS011;66602;48.922;2.414;2023-08-21T12:21:23;2.28;;;1.35;;
77099;SDS011;66602;48.922;2.414;2023-08-21T12:23:49;2.72;;;1.20;;
77099;SDS011;66602;48.922;2.414;2023-08-21T12:26:15;1.05;;;1.05;;
77099;SDS011;66602;48.922;2.414;2023-08-21T12:28:46;2.13;;;1.17;;
77099;SDS011;66602;48.922;2.414;2023-08-21T12:31:12;2.60;;;1.17;;
77099;SDS011;66602;48.922;2.414;2023-08-21T12:33:38;4.55;;;1.17;;
77099;SDS011;66602;48.922;2.414;2023-08-21T12:36:03;5.32;;;1.25;;
77099;SDS011;66602;48.922;2.414;2023-08-21T12:38:29;4.88;;;1.20;;
77099;SDS011;66602;48.922;2.414;2023-08-21T12:40:54;2.55;;;1.20;;
77099;SDS011;66602;48.922;2.414;2023-08-21T12:43:20;2.85;;;1.50;;
77099;SDS011;66602;48.922;2.414;2023-08-21T12:45:46;1.17;;;1.05;;
77099;SDS011;66602;48.922;2.414;2023-08-21T12:48:12;1.95;;;0.80;;
77099;SDS011;66602;48.922;2.414;2023-08-21T12:50:38;4.63;;;1.10;;
77099;SDS011;66602;48.922;2.414;2023-08-21T12:53:03;3.75;;;1.17;;
77099;SDS011;66602;48.922;2.414;2023-08-21T12:55:29;4.32;;;1.38;;
77099;SDS011;66602;48.922;2.414;2023-08-21T12:57:55;2.30;;;1.33;;
77099;SDS011;66602;48.922;2.414;2023-08-21T13:00:21;3.97;;;1.55;;
77099;SDS011;66602;48.922;2.414;2023-08-21T13:02:47;2.88;;;1.23;;
77099;SDS011;66602;48.922;2.414;2023-08-21T13:05:13;1.05;;;0.80;;
77099;SDS011;66602;48.922;2.414;2023-08-21T13:07:40;2.72;;;1.25;;
77099;SDS011;66602;48.922;2.414;2023-08-21T13:10:06;2.72;;;1.30;;
77099;SDS011;66602;48.922;2.414;2023-08-21T13:12:32;1.90;;;1.00;;
77099;SDS011;66602;48.922;2.414;2023-08-21T13:14:58;1.50;;;1.30;;
77099;SDS011;66602;48.922;2.414;2023-08-21T13:17:24;3.78;;;1.10;;
77099;SDS011;66602;48.922;2.414;2023-08-21T13:19:49;2.60;;;1.20;;
77099;SDS011;66602;48.922;2.414;2023-08-21T13:22:16;8.57;;;0.93;;
77099;SDS011;66602;48.922;2.414;2023-08-21T13:24:41;1.40;;;0.77;;
77099;SDS011;66602;48.922;2.414;2023-08-21T13:27:07;2.88;;;1.23;;
77099;SDS011;66602;48.922;2.414;2023-08-21T13:29:33;3.80;;;1.10;;
77099;SDS011;66602;48.922;2.414;2023-08-21T13:31:58;1.83;;;1.17;;
77099;SDS011;66602;48.922;2.414;2023-08-21T13:34:24;4.07;;;1.33;;
77099;SDS011;66602;48.922;2.414;2023-08-21T13:36:49;7.25;;;1.50;;
77099;SDS011;66602;48.922;2.414;2023-08-21T13:39:16;3.50;;;1.45;;
77099;SDS011;66602;48.922;2.414;2023-08-21T13:41:41;2.45;;;2.20;;
77099;SDS011;66602;48.922;2.414;2023-08-21T13:44:07;1.92;;;1.23;;
77099;SDS011;66602;48.922;2.414;2023-08-21T13:46:36;3.55;;;1.40;;
77099;SDS011;66602;48.922;2.414;2023-08-21T13:49:01;2.28;;;1.50;;
77099;SDS011;66602;48.922;2.414;2023-08-21T13:51:27;1.52;;;1.05;;
77099;SDS011;66602;48.922;2.414;2023-08-21T13:53:52;3.70;;;1.35;;
77099;SDS011;66602;48.922;2.414;2023-08-21T13:56:18;2.45;;;1.30;;
77099;SDS011;66602;48.922;2.414;2023-08-21T13:58:43;1.58;;;1.08;;
77099;SDS011;66602;48.922;2.414;2023-08-21T14:01:09;1.63;;;0.90;;
77099;SDS011;66602;48.922;2.414;2023-08-21T14:03:34;1.98;;;1.10;;
77099;SDS011;66602;48.922;2.414;2023-08-21T14:06:00;6.43;;;1.20;;
77099;SDS011;66602;48.922;2.414;2023-08-21T14:08:25;1.20;;;0.88;;
77099;SDS011;66602;48.922;2.414;2023-08-21T14:10:51;3.70;;;1.30;;
77099;SDS011;66602;48.922;2.414;2023-08-21T14:13:17;4.85;;;1.30;;
77099;SDS011;66602;48.922;2.414;2023-08-21T14:15:42;1.20;;;1.10;;
77099;SDS011;66602;48.922;2.414;2023-08-21T14:18:08;1.30;;;1.15;;
77099;SDS011;66602;48.922;2.414;2023-08-21T14:20:33;3.28;;;1.23;;
77099;SDS011;66602;48.922;2.414;2023-08-21T14:22:59;3.03;;;1.20;;
77099;SDS011;66602;48.922;2.414;2023-08-21T14:25:24;1.33;;;1.10;;
77099;SDS011;66602;48.922;2.414;2023-08-21T14:27:50;1.27;;;1.00;;
77099;SDS011;66602;48.922;2.414;2023-08-21T14:30:15;2.65;;;1.08;;
77099;SDS011;66602;48.922;2.414;2023-08-21T14:32:41;1.25;;;1.13;;
77099;SDS011;66602;48.922;2.414;2023-08-21T14:35:07;1.25;;;1.13;;
77099;SDS011;66602;48.922;2.414;2023-08-21T14:37:33;1.35;;;1.15;;
77099;SDS011;66602;48.922;2.414;2023-08-21T14:40:01;2.42;;;1.00;;
77099;SDS011;66602;48.922;2.414;2023-08-21T14:42:32;3.33;;;1.45;;
77099;SDS011;66602;48.922;2.414;2023-08-21T14:44:58;5.85;;;1.10;;
77099;SDS011;66602;48.922;2.414;2023-08-21T14:47:23;1.25;;;0.90;;
77099;SDS011;66602;48.922;2.414;2023-08-21T14:49:49;1.55;;;1.30;;
77099;SDS011;66602;48.922;2.414;2023-08-21T14:52:16;0.90;;;0.90;;
77099;SDS011;66602;48.922;2.414;2023-08-21T14:54:42;1.25;;;1.10;;